sensor_id;sensor_type;location;lat;lon;timestamp;pressure;altitude;pressure_sealevel;temperature;humidity
75063;BME280;63981;51.052;13.754;2023-07-31T00:00:47;100138.69;;;16.29;67.07
75063;BME280;63981;51.052;13.754;2023-07-31T00:03:13;100134.63;;;16.35;66.27
75063;BME280;63981;51.052;13.754;2023-07-31T00:05:40;100128.59;;;16.42;66.27
75063;BME280;63981;51.052;13.754;2023-07-31T00:08:07;100137.84;;;16.48;66.67
75063;BME280;63981;51.052;13.754;2023-07-31T00:10:34;100125.22;;;16.50;65.79
75063;BME280;63981;51.052;13.754;2023-07-31T00:13:00;100126.63;;;16.54;65.72
75063;BME280;63981;51.052;13.754;2023-07-31T00:15:26;100121.56;;;16.61;65.09
75063;BME280;63981;51.052;13.754;2023-07-31T00:17:53;100115.56;;;16.59;65.75
75063;BME280;63981;51.052;13.754;2023-07-31T00:20:19;100129.44;;;16.72;65.58
75063;BME280;63981;51.052;13.754;2023-07-31T00:22:46;100126.63;;;16.73;64.55
75063;BME280;63981;51.052;13.754;2023-07-31T00:25:13;100125.50;;;16.76;64.12
75063;BME280;63981;51.052;13.754;2023-07-31T00:27:40;100133.34;;;16.77;64.43
75063;BME280;63981;51.052;13.754;2023-07-31T00:30:11;100130.41;;;16.80;63.08
75063;BME280;63981;51.052;13.754;2023-07-31T00:32:38;100121.13;;;16.85;62.64
75063;BME280;63981;51.052;13.754;2023-07-31T00:35:05;100113.16;;;16.85;63.07
75063;BME280;63981;51.052;13.754;2023-07-31T00:37:31;100126.84;;;16.90;62.67
75063;BME280;63981;51.052;13.754;2023-07-31T00:39:57;100119.44;;;16.93;62.82
75063;BME280;63981;51.052;13.754;2023-07-31T00:42:25;100122.66;;;16.97;62.50
75063;BME280;63981;51.052;13.754;2023-07-31T00:44:51;100118.16;;;16.97;63.41
75063;BME280;63981;51.052;13.754;2023-07-31T00:47:18;100119.44;;;16.93;64.43
75063;BME280;63981;51.052;13.754;2023-07-31T00:49:45;100121.38;;;16.91;65.19
75063;BME280;63981;51.052;13.754;2023-07-31T00:52:11;100118.03;;;16.89;65.76
75063;BME280;63981;51.052;13.754;2023-07-31T00:54:38;100123.66;;;16.86;66.62
75063;BME280;63981;51.052;13.754;2023-07-31T00:57:06;100113.44;;;16.82;66.83
75063;BME280;63981;51.052;13.754;2023-07-31T00:59:35;100114.53;;;16.79;67.34
75063;BME280;63981;51.052;13.754;2023-07-31T01:02:03;100112.19;;;16.76;67.07
75063;BME280;63981;51.052;13.754;2023-07-31T01:04:30;100115.28;;;16.71;67.05
75063;BME280;63981;51.052;13.754;2023-07-31T01:07:02;100108.44;;;16.69;67.23
75063;BME280;63981;51.052;13.754;2023-07-31T01:09:37;100104.19;;;16.66;67.20
75063;BME280;63981;51.052;13.754;2023-07-31T01:12:07;100099.16;;;16.63;67.74
75063;BME280;63981;51.052;13.754;2023-07-31T01:14:36;100104.63;;;16.62;68.03
75063;BME280;63981;51.052;13.754;2023-07-31T01:17:03;100099.03;;;16.55;67.62
75063;BME280;63981;51.052;13.754;2023-07-31T01:19:29;100098.31;;;16.53;68.88
75063;BME280;63981;51.052;13.754;2023-07-31T01:22:11;100100.03;;;16.54;68.26
75063;BME280;63981;51.052;13.754;2023-07-31T01:24:54;100095.81;;;16.51;67.88
75063;BME280;63981;51.052;13.754;2023-07-31T01:27:24;100097.91;;;16.48;68.48
75063;BME280;63981;51.052;13.754;2023-07-31T01:29:57;100095.69;;;16.43;67.88
75063;BME280;63981;51.052;13.754;2023-07-31T01:32:25;100088.69;;;16.33;67.68
75063;BME280;63981;51.052;13.754;2023-07-31T01:34:55;100088.25;;;16.37;67.74
75063;BME280;63981;51.052;13.754;2023-07-31T01:37:28;100094.88;;;16.33;67.63
75063;BME280;63981;51.052;13.754;2023-07-31T01:39:55;100092.75;;;16.27;68.18
75063;BME280;63981;51.052;13.754;2023-07-31T01:42:22;100095.28;;;16.29;68.03
75063;BME280;63981;51.052;13.754;2023-07-31T01:44:50;100091.78;;;16.28;66.82
75063;BME280;63981;51.052;13.754;2023-07-31T01:47:16;100090.97;;;16.28;66.76
75063;BME280;63981;51.052;13.754;2023-07-31T01:49:43;100092.63;;;16.29;66.29
75063;BME280;63981;51.052;13.754;2023-07-31T01:52:09;100091.66;;;16.30;65.60
75063;BME280;63981;51.052;13.754;2023-07-31T01:54:35;100079.19;;;16.30;65.48
75063;BME280;63981;51.052;13.754;2023-07-31T01:57:03;100071.47;;;16.27;65.35
75063;BME280;63981;51.052;13.754;2023-07-31T01:59:31;100076.38;;;16.32;65.07
75063;BME280;63981;51.052;13.754;2023-07-31T02:01:57;100074.13;;;16.37;64.92
75063;BME280;63981;51.052;13.754;2023-07-31T02:04:23;100072.88;;;16.41;64.77
75063;BME280;63981;51.052;13.754;2023-07-31T02:06:50;100075.09;;;16.45;64.17
75063;BME280;63981;51.052;13.754;2023-07-31T02:09:16;100073.81;;;16.49;63.29
75063;BME280;63981;51.052;13.754;2023-07-31T02:11:42;100078.75;;;16.54;64.18
75063;BME280;63981;51.052;13.754;2023-07-31T02:14:09;100063.16;;;16.59;63.99
75063;BME280;63981;51.052;13.754;2023-07-31T02:16:37;100072.38;;;16.65;63.41
75063;BME280;63981;51.052;13.754;2023-07-31T02:19:03;100072.00;;;16.69;63.05
75063;BME280;63981;51.052;13.754;2023-07-31T02:21:30;100065.09;;;16.76;62.76
75063;BME280;63981;51.052;13.754;2023-07-31T02:23:56;100055.75;;;16.72;62.15
75063;BME280;63981;51.052;13.754;2023-07-31T02:26:22;100070.09;;;16.89;61.85
75063;BME280;63981;51.052;13.754;2023-07-31T02:28:49;100063.22;;;16.96;61.27
75063;BME280;63981;51.052;13.754;2023-07-31T02:31:15;100064.44;;;17.02;60.58
75063;BME280;63981;51.052;13.754;2023-07-31T02:33:43;100066.53;;;17.08;60.60
75063;BME280;63981;51.052;13.754;2023-07-31T02:36:09;100067.75;;;17.14;60.55
75063;BME280;63981;51.052;13.754;2023-07-31T02:38:37;100071.81;;;17.18;60.59
75063;BME280;63981;51.052;13.754;2023-07-31T02:41:03;100078.53;;;17.22;60.14
75063;BME280;63981;51.052;13.754;2023-07-31T02:43:29;100068.41;;;17.25;59.16
75063;BME280;63981;51.052;13.754;2023-07-31T02:45:55;100067.13;;;17.29;59.87
75063;BME280;63981;51.052;13.754;2023-07-31T02:48:23;100067.69;;;17.33;59.17
75063;BME280;63981;51.052;13.754;2023-07-31T02:50:51;100057.72;;;17.35;58.97
75063;BME280;63981;51.052;13.754;2023-07-31T02:53:18;100055.72;;;17.37;59.68
75063;BME280;63981;51.052;13.754;2023-07-31T02:55:44;100062.59;;;17.39;59.13
75063;BME280;63981;51.052;13.754;2023-07-31T02:58:11;100061.59;;;17.40;58.79
75063;BME280;63981;51.052;13.754;2023-07-31T03:00:42;100060.75;;;17.40;59.13
75063;BME280;63981;51.052;13.754;2023-07-31T03:03:08;100057.56;;;17.36;58.14
75063;BME280;63981;51.052;13.754;2023-07-31T03:05:35;100065.78;;;17.43;58.70
75063;BME280;63981;51.052;13.754;2023-07-31T03:08:03;100063.84;;;17.45;58.80
75063;BME280;63981;51.052;13.754;2023-07-31T03:10:29;100073.63;;;17.45;57.58
75063;BME280;63981;51.052;13.754;2023-07-31T03:12:56;100065.94;;;17.42;59.15
75063;BME280;63981;51.052;13.754;2023-07-31T03:15:22;100061.00;;;17.47;59.38
75063;BME280;63981;51.052;13.754;2023-07-31T03:17:48;100064.78;;;17.44;58.26
75063;BME280;63981;51.052;13.754;2023-07-31T03:20:15;100064.50;;;17.47;59.28
75063;BME280;63981;51.052;13.754;2023-07-31T03:22:41;100067.03;;;17.49;58.59
75063;BME280;63981;51.052;13.754;2023-07-31T03:25:09;100070.38;;;17.51;59.24
75063;BME280;63981;51.052;13.754;2023-07-31T03:27:36;100064.66;;;17.46;59.12
75063;BME280;63981;51.052;13.754;2023-07-31T03:30:03;100081.03;;;17.51;58.90
75063;BME280;63981;51.052;13.754;2023-07-31T03:32:29;100077.38;;;17.52;59.02
75063;BME280;63981;51.052;13.754;2023-07-31T03:34:56;100079.34;;;17.50;58.48
75063;BME280;63981;51.052;13.754;2023-07-31T03:37:22;100076.69;;;17.50;60.02
75063;BME280;63981;51.052;13.754;2023-07-31T03:39:48;100086.38;;;17.51;60.35
75063;BME280;63981;51.052;13.754;2023-07-31T03:42:16;100080.88;;;17.52;60.33
75063;BME280;63981;51.052;13.754;2023-07-31T03:44:42;100088.72;;;17.54;61.48
75063;BME280;63981;51.052;13.754;2023-07-31T03:47:10;100093.00;;;17.47;63.35
75063;BME280;63981;51.052;13.754;2023-07-31T03:49:37;100086.56;;;17.39;64.53
75063;BME280;63981;51.052;13.754;2023-07-31T03:52:04;100080.84;;;17.34;65.62
75063;BME280;63981;51.052;13.754;2023-07-31T03:54:31;100071.63;;;17.29;65.95
75063;BME280;63981;51.052;13.754;2023-07-31T03:56:58;100072.22;;;17.23;67.16
75063;BME280;63981;51.052;13.754;2023-07-31T03:59:26;100073.44;;;17.28;66.56
75063;BME280;63981;51.052;13.754;2023-07-31T04:01:52;100080.44;;;17.29;67.25
75063;BME280;63981;51.052;13.754;2023-07-31T04:04:18;100058.63;;;17.16;67.59
75063;BME280;63981;51.052;13.754;2023-07-31T04:06:45;100063.44;;;17.13;68.51
75063;BME280;63981;51.052;13.754;2023-07-31T04:09:11;100061.44;;;17.15;68.19
75063;BME280;63981;51.052;13.754;2023-07-31T04:11:37;100060.75;;;17.13;68.74
75063;BME280;63981;51.052;13.754;2023-07-31T04:14:05;100061.75;;;17.12;68.70
75063;BME280;63981;51.052;13.754;2023-07-31T04:16:33;100061.75;;;17.12;69.37
75063;BME280;63981;51.052;13.754;2023-07-31T04:18:59;100064.72;;;17.08;69.55
75063;BME280;63981;51.052;13.754;2023-07-31T04:21:25;100060.94;;;17.01;70.13
75063;BME280;63981;51.052;13.754;2023-07-31T04:23:52;100061.94;;;17.00;71.59
75063;BME280;63981;51.052;13.754;2023-07-31T04:26:21;100053.72;;;16.94;72.15
75063;BME280;63981;51.052;13.754;2023-07-31T04:28:48;100050.94;;;16.86;72.41
75063;BME280;63981;51.052;13.754;2023-07-31T04:31:14;100052.47;;;16.78;73.07
75063;BME280;63981;51.052;13.754;2023-07-31T04:33:42;100047.59;;;16.74;73.80
75063;BME280;63981;51.052;13.754;2023-07-31T04:36:08;100045.09;;;16.72;73.74
75063;BME280;63981;51.052;13.754;2023-07-31T04:38:34;100042.72;;;16.69;74.98
75063;BME280;63981;51.052;13.754;2023-07-31T04:41:01;100043.41;;;16.62;74.14
75063;BME280;63981;51.052;13.754;2023-07-31T04:43:27;100038.69;;;16.56;75.27
75063;BME280;63981;51.052;13.754;2023-07-31T04:45:53;100036.28;;;16.52;74.88
75063;BME280;63981;51.052;13.754;2023-07-31T04:48:20;100033.06;;;16.49;75.57
75063;BME280;63981;51.052;13.754;2023-07-31T04:50:47;100032.25;;;16.48;75.63
75063;BME280;63981;51.052;13.754;2023-07-31T04:53:14;100016.72;;;16.44;75.83
75063;BME280;63981;51.052;13.754;2023-07-31T04:55:58;100032.25;;;16.48;75.90
75063;BME280;63981;51.052;13.754;2023-07-31T04:58:25;100033.38;;;16.46;76.34
75063;BME280;63981;51.052;13.754;2023-07-31T05:00:51;100024.41;;;16.47;76.22
75063;BME280;63981;51.052;13.754;2023-07-31T05:03:17;100032.25;;;16.48;76.55
75063;BME280;63981;51.052;13.754;2023-07-31T05:05:44;100028.59;;;16.49;75.65
75063;BME280;63981;51.052;13.754;2023-07-31T05:08:11;100026.91;;;16.48;75.46
75063;BME280;63981;51.052;13.754;2023-07-31T05:10:38;100020.59;;;16.49;76.06
75063;BME280;63981;51.052;13.754;2023-07-31T05:13:04;100016.97;;;16.50;75.01
75063;BME280;63981;51.052;13.754;2023-07-31T05:15:31;100024.09;;;16.50;75.03
75063;BME280;63981;51.052;13.754;2023-07-31T05:17:57;100021.44;;;16.50;75.35
75063;BME280;63981;51.052;13.754;2023-07-31T05:20:24;100015.81;;;16.53;74.66
75063;BME280;63981;51.052;13.754;2023-07-31T05:22:50;100014.44;;;16.59;74.83
75063;BME280;63981;51.052;13.754;2023-07-31T05:25:18;100006.84;;;16.64;75.07
75063;BME280;63981;51.052;13.754;2023-07-31T05:27:45;100009.22;;;16.67;74.57
75063;BME280;63981;51.052;13.754;2023-07-31T05:30:11;100007.00;;;16.72;75.14
75063;BME280;63981;51.052;13.754;2023-07-31T05:32:37;100000.69;;;16.73;74.99
75063;BME280;63981;51.052;13.754;2023-07-31T05:35:05;99998.69;;;16.75;74.57
75063;BME280;63981;51.052;13.754;2023-07-31T05:37:31;100000.06;;;16.79;74.32
75063;BME280;63981;51.052;13.754;2023-07-31T05:40:00;100002.31;;;16.84;74.43
75063;BME280;63981;51.052;13.754;2023-07-31T05:42:28;99999.66;;;16.84;74.21
75063;BME280;63981;51.052;13.754;2023-07-31T05:44:54;100005.53;;;16.87;73.92
75063;BME280;63981;51.052;13.754;2023-07-31T05:47:21;100002.69;;;16.89;73.88
75063;BME280;63981;51.052;13.754;2023-07-31T05:49:48;99998.63;;;16.94;74.23
75063;BME280;63981;51.052;13.754;2023-07-31T05:52:15;100000.00;;;16.98;73.05
75063;BME280;63981;51.052;13.754;2023-07-31T05:54:42;99998.56;;;17.04;74.14
75063;BME280;63981;51.052;13.754;2023-07-31T05:57:08;99998.72;;;17.02;73.29
75063;BME280;63981;51.052;13.754;2023-07-31T05:59:36;99996.72;;;17.04;73.28
75063;BME280;63981;51.052;13.754;2023-07-31T06:02:02;100004.59;;;17.06;73.55
75063;BME280;63981;51.052;13.754;2023-07-31T06:04:28;99999.13;;;17.07;73.10
75063;BME280;63981;51.052;13.754;2023-07-31T06:06:56;99990.97;;;17.09;73.20
75063;BME280;63981;51.052;13.754;2023-07-31T06:09:22;99989.84;;;17.12;73.02
75063;BME280;63981;51.052;13.754;2023-07-31T06:11:49;99992.50;;;17.12;73.41
75063;BME280;63981;51.052;13.754;2023-07-31T06:14:15;99984.88;;;17.17;73.78
75063;BME280;63981;51.052;13.754;2023-07-31T06:16:43;99994.44;;;17.19;72.32
75063;BME280;63981;51.052;13.754;2023-07-31T06:19:10;99993.44;;;17.20;71.62
75063;BME280;63981;51.052;13.754;2023-07-31T06:21:36;99984.38;;;17.31;72.68
75063;BME280;63981;51.052;13.754;2023-07-31T06:24:03;99997.94;;;17.37;71.75
75063;BME280;63981;51.052;13.754;2023-07-31T06:26:30;99990.31;;;17.43;72.13
75063;BME280;63981;51.052;13.754;2023-07-31T06:28:56;99991.00;;;17.45;71.86
75063;BME280;63981;51.052;13.754;2023-07-31T06:31:22;99984.41;;;17.49;72.01
75063;BME280;63981;51.052;13.754;2023-07-31T06:33:51;99985.63;;;17.54;70.57
75063;BME280;63981;51.052;13.754;2023-07-31T06:36:17;99994.28;;;17.56;70.22
75063;BME280;63981;51.052;13.754;2023-07-31T06:38:44;100002.16;;;17.58;70.33
75063;BME280;63981;51.052;13.754;2023-07-31T06:41:10;99989.81;;;17.57;69.80
75063;BME280;63981;51.052;13.754;2023-07-31T06:43:36;99993.03;;;17.60;70.43
75063;BME280;63981;51.052;13.754;2023-07-31T06:46:05;99990.03;;;17.63;70.77
75063;BME280;63981;51.052;13.754;2023-07-31T06:48:32;99989.22;;;17.63;71.16
75063;BME280;63981;51.052;13.754;2023-07-31T06:51:00;99987.06;;;17.66;71.31
75063;BME280;63981;51.052;13.754;2023-07-31T06:53:26;99991.13;;;17.71;71.08
75063;BME280;63981;51.052;13.754;2023-07-31T06:55:53;99983.13;;;17.71;70.73
75063;BME280;63981;51.052;13.754;2023-07-31T06:58:19;99983.84;;;17.73;71.08
75063;BME280;63981;51.052;13.754;2023-07-31T07:00:45;99993.34;;;17.75;69.94
75063;BME280;63981;51.052;13.754;2023-07-31T07:03:11;99988.53;;;17.79;69.49
75063;BME280;63981;51.052;13.754;2023-07-31T07:05:40;99995.22;;;17.83;69.27
75063;BME280;63981;51.052;13.754;2023-07-31T07:08:08;99969.56;;;17.82;69.51
75063;BME280;63981;51.052;13.754;2023-07-31T07:10:34;99981.97;;;17.91;68.35
75063;BME280;63981;51.052;13.754;2023-07-31T07:13:01;99987.16;;;17.92;69.09
75063;BME280;63981;51.052;13.754;2023-07-31T07:15:27;99984.56;;;18.01;68.65
75063;BME280;63981;51.052;13.754;2023-07-31T07:17:53;99996.59;;;18.05;69.03
75063;BME280;63981;51.052;13.754;2023-07-31T07:20:19;99997.66;;;18.12;69.20
75063;BME280;63981;51.052;13.754;2023-07-31T07:22:46;99996.69;;;18.21;67.35
75063;BME280;63981;51.052;13.754;2023-07-31T07:25:13;99989.91;;;18.26;67.54
75063;BME280;63981;51.052;13.754;2023-07-31T07:27:40;99984.09;;;18.31;66.78
75063;BME280;63981;51.052;13.754;2023-07-31T07:30:07;99991.19;;;18.40;66.94
75063;BME280;63981;51.052;13.754;2023-07-31T07:32:33;99987.84;;;18.46;66.59
75063;BME280;63981;51.052;13.754;2023-07-31T07:35:00;99986.25;;;18.53;66.63
75063;BME280;63981;51.052;13.754;2023-07-31T07:37:26;99984.94;;;18.57;66.82
75063;BME280;63981;51.052;13.754;2023-07-31T07:39:52;99987.00;;;18.64;66.07
75063;BME280;63981;51.052;13.754;2023-07-31T07:42:20;99978.03;;;18.73;66.64
75063;BME280;63981;51.052;13.754;2023-07-31T07:44:47;99973.06;;;18.78;65.76
75063;BME280;63981;51.052;13.754;2023-07-31T07:47:13;99985.25;;;18.80;65.00
75063;BME280;63981;51.052;13.754;2023-07-31T07:49:39;99983.25;;;18.82;65.05
75063;BME280;63981;51.052;13.754;2023-07-31T07:52:06;99992.59;;;18.86;64.87
75063;BME280;63981;51.052;13.754;2023-07-31T07:54:32;99990.47;;;18.90;65.13
75063;BME280;63981;51.052;13.754;2023-07-31T07:56:59;99984.31;;;18.98;65.16
75063;BME280;63981;51.052;13.754;2023-07-31T07:59:27;99984.97;;;19.00;64.25
75063;BME280;63981;51.052;13.754;2023-07-31T08:01:53;99992.84;;;19.01;65.02
75063;BME280;63981;51.052;13.754;2023-07-31T08:04:19;99996.19;;;19.03;64.25
75063;BME280;63981;51.052;13.754;2023-07-31T08:06:46;99989.84;;;19.12;63.47
75063;BME280;63981;51.052;13.754;2023-07-31T08:09:12;99990.06;;;19.19;63.68
75063;BME280;63981;51.052;13.754;2023-07-31T08:11:38;99985.72;;;19.26;63.60
75063;BME280;63981;51.052;13.754;2023-07-31T08:14:05;99988.59;;;19.33;63.46
75063;BME280;63981;51.052;13.754;2023-07-31T08:16:32;99997.16;;;19.44;62.75
75063;BME280;63981;51.052;13.754;2023-07-31T08:18:59;99977.44;;;19.45;62.49
75063;BME280;63981;51.052;13.754;2023-07-31T08:21:25;100000.88;;;19.60;61.80
75063;BME280;63981;51.052;13.754;2023-07-31T08:23:52;99999.03;;;19.60;nan
75063;BME280;63981;51.052;13.754;2023-07-31T08:26:19;99993.84;;;19.59;61.78
75063;BME280;63981;51.052;13.754;2023-07-31T08:28:45;99990.50;;;19.65;62.35
75063;BME280;63981;51.052;13.754;2023-07-31T08:31:12;99995.88;;;19.73;62.36
75063;BME280;63981;51.052;13.754;2023-07-31T08:33:39;100001.25;;;19.81;62.94
75063;BME280;63981;51.052;13.754;2023-07-31T08:36:09;99994.72;;;19.84;62.27
75063;BME280;63981;51.052;13.754;2023-07-31T08:38:35;99993.72;;;19.85;61.05
75063;BME280;63981;51.052;13.754;2023-07-31T08:41:03;99994.53;;;19.85;60.91
75063;BME280;63981;51.052;13.754;2023-07-31T08:43:30;99984.00;;;19.84;61.18
75063;BME280;63981;51.052;13.754;2023-07-31T08:45:56;99995.06;;;19.81;60.65
75063;BME280;63981;51.052;13.754;2023-07-31T08:48:23;99978.16;;;19.80;59.07
75063;BME280;63981;51.052;13.754;2023-07-31T08:50:51;99985.00;;;19.74;59.57
75063;BME280;63981;51.052;13.754;2023-07-31T08:53:17;99979.31;;;19.69;59.71
75063;BME280;63981;51.052;13.754;2023-07-31T08:55:44;99992.53;;;19.71;59.99
75063;BME280;63981;51.052;13.754;2023-07-31T08:58:12;99990.69;;;19.71;60.14
75063;BME280;63981;51.052;13.754;2023-07-31T09:00:40;99980.16;;;19.70;60.09
75063;BME280;63981;51.052;13.754;2023-07-31T09:03:09;99995.38;;;19.69;60.56
75063;BME280;63981;51.052;13.754;2023-07-31T09:05:36;99990.38;;;19.66;59.85
75063;BME280;63981;51.052;13.754;2023-07-31T09:08:07;100000.91;;;19.68;60.20
75063;BME280;63981;51.052;13.754;2023-07-31T09:10:35;99999.88;;;19.69;59.96
75063;BME280;63981;51.052;13.754;2023-07-31T09:13:02;99987.66;;;19.58;60.16
75063;BME280;63981;51.052;13.754;2023-07-31T09:15:29;99992.19;;;19.66;59.73
75063;BME280;63981;51.052;13.754;2023-07-31T09:18:00;99988.66;;;19.65;60.05
75063;BME280;63981;51.052;13.754;2023-07-31T09:20:29;99990.19;;;19.68;60.36
75063;BME280;63981;51.052;13.754;2023-07-31T09:22:56;99986.19;;;19.72;59.54
75063;BME280;63981;51.052;13.754;2023-07-31T09:25:32;99980.31;;;19.77;60.54
75063;BME280;63981;51.052;13.754;2023-07-31T09:28:00;99974.50;;;19.81;60.56
75063;BME280;63981;51.052;13.754;2023-07-31T09:30:26;99981.81;;;19.79;59.35
75063;BME280;63981;51.052;13.754;2023-07-31T09:33:00;99966.94;;;19.77;58.26
75063;BME280;63981;51.052;13.754;2023-07-31T09:35:28;99964.44;;;19.75;59.71
75063;BME280;63981;51.052;13.754;2023-07-31T09:37:57;99958.63;;;19.80;59.52
75063;BME280;63981;51.052;13.754;2023-07-31T09:40:27;99964.63;;;19.82;59.16
75063;BME280;63981;51.052;13.754;2023-07-31T09:42:58;99967.78;;;19.77;58.70
75063;BME280;63981;51.052;13.754;2023-07-31T09:45:25;99962.59;;;19.76;58.75
75063;BME280;63981;51.052;13.754;2023-07-31T09:47:52;99955.06;;;19.79;59.42
75063;BME280;63981;51.052;13.754;2023-07-31T09:50:20;99960.41;;;19.79;59.14
75063;BME280;63981;51.052;13.754;2023-07-31T09:52:47;99964.28;;;19.77;58.64
75063;BME280;63981;51.052;13.754;2023-07-31T09:55:13;99956.41;;;19.75;58.95
75063;BME280;63981;51.052;13.754;2023-07-31T09:57:42;99950.91;;;19.77;58.83
75063;BME280;63981;51.052;13.754;2023-07-31T10:00:14;99958.44;;;19.81;58.44
75063;BME280;63981;51.052;13.754;2023-07-31T10:02:41;99948.06;;;19.78;58.85
75063;BME280;63981;51.052;13.754;2023-07-31T10:05:12;99959.94;;;19.84;59.05
75063;BME280;63981;51.052;13.754;2023-07-31T10:07:42;99954.06;;;19.88;58.44
75063;BME280;63981;51.052;13.754;2023-07-31T10:10:09;99953.72;;;19.91;58.64
75063;BME280;63981;51.052;13.754;2023-07-31T10:12:36;99956.28;;;19.93;58.65
75063;BME280;63981;51.052;13.754;2023-07-31T10:15:04;99948.06;;;19.94;58.59
75063;BME280;63981;51.052;13.754;2023-07-31T10:17:33;99950.41;;;19.97;58.31
75063;BME280;63981;51.052;13.754;2023-07-31T10:20:01;99943.53;;;20.03;57.77
75063;BME280;63981;51.052;13.754;2023-07-31T10:22:30;99937.16;;;20.04;58.16
75063;BME280;63981;51.052;13.754;2023-07-31T10:24:58;99931.47;;;20.15;57.65
75063;BME280;63981;51.052;13.754;2023-07-31T10:27:24;99918.44;;;20.12;57.87
75063;BME280;63981;51.052;13.754;2023-07-31T10:29:52;99923.06;;;20.26;57.65
75063;BME280;63981;51.052;13.754;2023-07-31T10:32:20;99927.41;;;20.27;57.67
75063;BME280;63981;51.052;13.754;2023-07-31T10:34:50;99931.28;;;20.33;57.73
75063;BME280;63981;51.052;13.754;2023-07-31T10:37:24;99928.91;;;20.38;58.08
75063;BME280;63981;51.052;13.754;2023-07-31T10:39:56;99922.88;;;20.44;57.45
75063;BME280;63981;51.052;13.754;2023-07-31T10:42:27;99923.56;;;20.46;56.86
75063;BME280;63981;51.052;13.754;2023-07-31T10:44:57;99917.84;;;20.49;56.41
75063;BME280;63981;51.052;13.754;2023-07-31T10:47:24;99916.00;;;20.58;57.02
75063;BME280;63981;51.052;13.754;2023-07-31T10:49:52;99910.75;;;20.65;57.27
75063;BME280;63981;51.052;13.754;2023-07-31T10:52:20;99907.06;;;20.74;57.07
75063;BME280;63981;51.052;13.754;2023-07-31T10:54:50;99914.06;;;20.75;55.84
75063;BME280;63981;51.052;13.754;2023-07-31T10:57:20;99898.31;;;20.80;55.45
75063;BME280;63981;51.052;13.754;2023-07-31T10:59:48;99899.63;;;20.84;56.16
75063;BME280;63981;51.052;13.754;2023-07-31T11:02:24;99898.28;;;20.88;55.80
75063;BME280;63981;51.052;13.754;2023-07-31T11:05:07;99896.53;;;20.95;56.31
75063;BME280;63981;51.052;13.754;2023-07-31T11:07:47;99898.53;;;21.01;55.98
75063;BME280;63981;51.052;13.754;2023-07-31T11:10:16;99883.81;;;20.97;56.07
75063;BME280;63981;51.052;13.754;2023-07-31T11:12:45;99889.13;;;21.05;55.98
75063;BME280;63981;51.052;13.754;2023-07-31T11:15:12;99893.47;;;21.06;55.66
75063;BME280;63981;51.052;13.754;2023-07-31T11:17:38;99887.09;;;21.07;56.10
75063;BME280;63981;51.052;13.754;2023-07-31T11:20:07;99890.41;;;21.09;56.35
75063;BME280;63981;51.052;13.754;2023-07-31T11:22:34;99886.56;;;21.12;55.91
75063;BME280;63981;51.052;13.754;2023-07-31T11:25:01;99888.88;;;21.15;55.91
75063;BME280;63981;51.052;13.754;2023-07-31T11:27:27;99891.84;;;21.20;56.81
75063;BME280;63981;51.052;13.754;2023-07-31T11:30:00;99888.16;;;21.21;55.66
75063;BME280;63981;51.052;13.754;2023-07-31T11:32:26;99899.72;;;21.21;56.90
75063;BME280;63981;51.052;13.754;2023-07-31T11:34:53;99890.84;;;21.21;56.53
75063;BME280;63981;51.052;13.754;2023-07-31T11:37:20;99898.41;;;21.17;56.31
75063;BME280;63981;51.052;13.754;2023-07-31T11:39:58;99874.00;;;21.12;56.56
75063;BME280;63981;51.052;13.754;2023-07-31T11:42:25;99883.47;;;21.23;56.76
75063;BME280;63981;51.052;13.754;2023-07-31T11:44:51;99879.69;;;21.40;57.56
75063;BME280;63981;51.052;13.754;2023-07-31T11:47:17;99870.47;;;21.58;56.66
75063;BME280;63981;51.052;13.754;2023-07-31T11:49:44;99873.00;;;21.74;55.73
75063;BME280;63981;51.052;13.754;2023-07-31T11:52:11;99868.59;;;21.81;55.44
75063;BME280;63981;51.052;13.754;2023-07-31T11:54:40;99869.34;;;21.90;55.86
75063;BME280;63981;51.052;13.754;2023-07-31T11:57:07;99860.00;;;22.00;55.46
75063;BME280;63981;51.052;13.754;2023-07-31T11:59:34;99850.78;;;22.18;54.70
75063;BME280;63981;51.052;13.754;2023-07-31T12:02:01;99853.56;;;22.24;53.95
75063;BME280;63981;51.052;13.754;2023-07-31T12:04:27;99851.34;;;22.28;54.57
75063;BME280;63981;51.052;13.754;2023-07-31T12:06:54;99849.13;;;22.31;54.20
75063;BME280;63981;51.052;13.754;2023-07-31T12:09:20;99844.13;;;22.43;54.48
75063;BME280;63981;51.052;13.754;2023-07-31T12:11:48;99842.13;;;22.52;54.97
75063;BME280;63981;51.052;13.754;2023-07-31T12:14:21;99826.84;;;22.67;54.28
75063;BME280;63981;51.052;13.754;2023-07-31T12:16:54;99833.09;;;22.89;54.78
75063;BME280;63981;51.052;13.754;2023-07-31T12:19:21;99821.84;;;23.00;53.75
75063;BME280;63981;51.052;13.754;2023-07-31T12:21:47;99816.16;;;23.10;52.37
75063;BME280;63981;51.052;13.754;2023-07-31T12:24:14;99826.38;;;23.21;51.82
75063;BME280;63981;51.052;13.754;2023-07-31T12:26:40;99810.50;;;23.26;51.08
75063;BME280;63981;51.052;13.754;2023-07-31T12:29:08;99815.13;;;23.32;51.03
75063;BME280;63981;51.052;13.754;2023-07-31T12:31:34;99809.34;;;23.35;51.56
75063;BME280;63981;51.052;13.754;2023-07-31T12:34:01;99805.03;;;23.41;51.29
75063;BME280;63981;51.052;13.754;2023-07-31T12:36:28;99806.16;;;23.53;49.42
75063;BME280;63981;51.052;13.754;2023-07-31T12:38:58;99800.56;;;23.76;50.67
75063;BME280;63981;51.052;13.754;2023-07-31T12:41:24;99790.03;;;23.81;48.43
75063;BME280;63981;51.052;13.754;2023-07-31T12:43:52;99787.81;;;23.91;48.93
75063;BME280;63981;51.052;13.754;2023-07-31T12:46:20;99784.56;;;24.02;48.34